createdAt,value
2023-02-05T00:06:57.066Z,-1.26
2023-02-05T00:17:03.402Z,-1.21
2023-02-05T00:27:11.289Z,-1.14
2023-02-05T00:37:17.659Z,-1.27
2023-02-05T00:47:24.004Z,-1.37
2023-02-05T00:57:30.353Z,-1.32
2023-02-05T01:07:37.710Z,-1.39
2023-02-05T01:17:44.087Z,-1.44
2023-02-05T01:27:50.496Z,-1.37
2023-02-05T01:37:56.985Z,-1.40
2023-02-05T01:48:05.175Z,-1.39
2023-02-05T01:58:11.744Z,-1.33
2023-02-05T02:08:18.146Z,-1.42
2023-02-05T02:18:28.153Z,-1.51
2023-02-05T02:28:43.740Z,-1.53
2023-02-05T02:39:18.300Z,-1.58
2023-02-05T02:49:41.736Z,-1.80
2023-02-05T02:59:50.103Z,-2.05
2023-02-05T03:10:22.254Z,-2.26
2023-02-05T03:20:31.427Z,-2.42
2023-02-05T03:30:50.196Z,-2.51
2023-02-05T03:41:00.659Z,-2.45
2023-02-05T03:51:24.702Z,-2.37
2023-02-05T04:01:31.343Z,-2.82
2023-02-05T04:11:38.961Z,-3.05
2023-02-05T04:21:45.731Z,-3.27
2023-02-05T04:31:52.135Z,-3.31
2023-02-05T04:41:58.595Z,-3.52
2023-02-05T04:52:04.965Z,-3.73
2023-02-05T05:02:11.293Z,-4.13
2023-02-05T05:12:17.672Z,-4.16
2023-02-05T05:22:24.616Z,-4.22
2023-02-05T05:32:30.916Z,-4.56
2023-02-05T05:42:56.045Z,-4.71
2023-02-05T05:53:02.386Z,-4.73
2023-02-05T06:03:08.707Z,-4.98
2023-02-05T06:13:15.260Z,-4.97
2023-02-05T06:23:21.582Z,-4.98
2023-02-05T06:33:27.885Z,-5.06
2023-02-05T06:43:34.146Z,-4.92
2023-02-05T06:53:40.526Z,-4.52
2023-02-05T07:03:46.900Z,-4.05
2023-02-05T07:13:53.306Z,-3.54
2023-02-05T07:23:59.673Z,-2.72
2023-02-05T07:34:06.032Z,-1.69
2023-02-05T07:44:12.554Z,-0.93
2023-02-05T07:54:18.878Z,-1.32
2023-02-05T08:04:25.335Z,-1.43
2023-02-05T08:14:32.485Z,0.13
2023-02-05T08:24:39.487Z,0.47
2023-02-05T08:34:45.958Z,0.27
2023-02-05T08:44:52.865Z,0.68
2023-02-05T08:54:59.286Z,-0.18
2023-02-05T09:05:09.277Z,-0.22
2023-02-05T09:15:15.960Z,-1.26
2023-02-05T09:25:22.256Z,-1.20
2023-02-05T09:35:28.831Z,-0.92
2023-02-05T09:46:01.452Z,-1.15
2023-02-05T09:56:09.639Z,-1.43
2023-02-05T10:06:46.864Z,-1.51
2023-02-05T10:17:32.808Z,-1.50
2023-02-05T10:27:47.979Z,-1.24
2023-02-05T10:37:58.100Z,-1.44
2023-02-05T10:48:35.011Z,-1.00
2023-02-05T10:58:50.456Z,-0.85
2023-02-05T11:08:56.822Z,-0.63
2023-02-05T11:19:03.284Z,-0.95
2023-02-05T11:29:24.962Z,-0.63
2023-02-05T11:39:37.806Z,0.31
2023-02-05T11:49:44.142Z,-0.42
2023-02-05T11:59:56.414Z,-0.50
2023-02-05T12:10:02.718Z,-0.94
2023-02-05T12:20:29.564Z,-1.14
2023-02-05T12:30:54.581Z,-1.24
2023-02-05T12:41:14.019Z,-1.30
2023-02-05T12:52:03.152Z,-1.50
2023-02-05T13:02:29.827Z,-1.71
2023-02-05T13:12:41.854Z,-1.84
2023-02-05T13:23:15.547Z,-1.51
2023-02-05T13:33:21.873Z,-1.36
2023-02-05T13:43:43.615Z,-1.28
2023-02-05T13:53:55.851Z,-1.03
2023-02-05T14:04:09.142Z,-1.11
2023-02-05T14:14:23.514Z,-1.31
2023-02-05T14:24:44.664Z,-1.46
2023-02-05T14:35:02.778Z,-1.79
2023-02-05T14:45:18.270Z,-2.05
2023-02-05T14:55:33.713Z,-2.08
2023-02-05T15:05:46.257Z,-2.17
2023-02-05T15:16:07.976Z,-2.17
2023-02-05T15:26:33.399Z,-1.84
2023-02-05T15:36:55.231Z,-1.88
2023-02-05T15:47:04.380Z,-1.80
2023-02-05T15:57:19.742Z,-1.83
2023-02-05T16:07:29.017Z,-2.05
2023-02-05T16:17:47.385Z,-2.08
2023-02-05T16:27:54.781Z,-2.09
2023-02-05T16:38:02.511Z,-2.21
2023-02-05T16:48:27.100Z,-2.24
2023-02-05T16:58:39.517Z,-2.18
2023-02-05T17:08:54.874Z,-2.19
2023-02-05T17:19:05.596Z,-2.18
2023-02-05T17:29:16.636Z,-1.95
2023-02-05T17:39:23.021Z,-2.17
2023-02-05T17:49:29.642Z,-2.18
2023-02-05T17:59:36.694Z,-2.29
2023-02-05T18:09:43.197Z,-2.27
2023-02-05T18:19:49.563Z,-2.26
2023-02-05T18:29:56.161Z,-2.17
2023-02-05T18:40:02.505Z,-2.12
2023-02-05T18:50:10.328Z,-2.25
2023-02-05T19:00:16.956Z,-2.53
2023-02-05T19:10:23.451Z,-2.40
2023-02-05T19:20:29.786Z,-2.48
2023-02-05T19:30:37.396Z,-2.33
2023-02-05T19:40:44.135Z,-2.64
2023-02-05T19:50:50.635Z,-2.46
2023-02-05T20:00:56.943Z,-2.57
2023-02-05T20:11:04.321Z,-2.62
2023-02-05T20:21:13.258Z,-2.54
2023-02-05T20:31:34.880Z,-2.63
2023-02-05T20:41:41.796Z,-2.76
2023-02-05T20:51:48.411Z,-2.77
2023-02-05T21:01:54.804Z,-2.69
2023-02-05T21:12:01.386Z,-2.69
2023-02-05T21:22:07.703Z,-2.92
2023-02-05T21:32:13.991Z,-3.13
2023-02-05T21:42:20.357Z,-3.23
2023-02-05T21:52:26.705Z,-3.61
2023-02-05T22:02:32.998Z,-3.64
2023-02-05T22:12:39.317Z,-3.77
2023-02-05T22:22:45.672Z,-3.91
2023-02-05T22:32:52.426Z,-3.90
2023-02-05T22:42:58.744Z,-4.10
2023-02-05T22:53:05.336Z,-3.95
2023-02-05T23:03:11.619Z,-3.90
2023-02-05T23:13:18.034Z,-3.85
2023-02-05T23:23:24.306Z,-3.96
2023-02-05T23:33:31.225Z,-4.35
2023-02-05T23:43:38.397Z,-4.67
2023-02-05T23:53:44.716Z,-4.80
